createdAt,value
2023-01-23T00:01:26.938Z,15.60
2023-01-23T00:03:55.173Z,15.80
2023-01-23T00:06:23.028Z,14.20
2023-01-23T00:08:50.712Z,18.60
2023-01-23T00:11:22.501Z,17.70
2023-01-23T00:13:52.876Z,16.30
2023-01-23T00:16:22.663Z,14.10
2023-01-23T00:18:50.246Z,14.60
2023-01-23T00:21:20.047Z,11.10
2023-01-23T00:23:51.411Z,14.00
2023-01-23T00:26:23.879Z,14.10
2023-01-23T00:28:51.580Z,18.00
2023-01-23T00:31:25.744Z,15.20
2023-01-23T00:33:58.291Z,14.30
2023-01-23T00:36:30.321Z,12.30
2023-01-23T00:38:57.983Z,13.90
2023-01-23T00:41:25.639Z,15.40
2023-01-23T00:43:54.355Z,14.40
2023-01-23T00:46:22.119Z,15.40
2023-01-23T00:48:50.045Z,11.80
2023-01-23T00:51:19.439Z,13.90
2023-01-23T00:53:47.327Z,12.90
2023-01-23T00:56:15.174Z,14.30
2023-01-23T00:58:45.030Z,14.90
2023-01-23T01:01:14.935Z,14.30
2023-01-23T01:03:42.886Z,14.70
2023-01-23T01:06:10.757Z,11.00
2023-01-23T01:08:38.681Z,14.80
2023-01-23T01:11:06.350Z,15.50
2023-01-23T01:13:33.962Z,11.80
2023-01-23T01:16:02.512Z,19.90
2023-01-23T01:18:30.258Z,15.60
2023-01-23T01:20:58.191Z,13.90
2023-01-23T01:23:26.358Z,13.40
2023-01-23T01:25:53.918Z,16.80
2023-01-23T01:28:21.799Z,15.50
2023-01-23T01:30:49.423Z,11.70
2023-01-23T01:33:16.920Z,13.40
2023-01-23T01:35:45.080Z,16.60
2023-01-23T01:38:13.061Z,14.80
2023-01-23T01:40:40.620Z,14.80
2023-01-23T01:43:16.410Z,16.90
2023-01-23T01:46:11.692Z,16.30
2023-01-23T01:49:02.515Z,12.40
2023-01-23T01:51:34.590Z,16.90
2023-01-23T01:54:23.196Z,17.20
2023-01-23T01:57:14.600Z,12.80
2023-01-23T01:59:48.583Z,14.10
2023-01-23T02:02:26.219Z,16.40
2023-01-23T02:05:06.756Z,16.90
2023-01-23T02:07:35.262Z,14.50
2023-01-23T02:10:04.443Z,18.50
2023-01-23T02:12:32.367Z,13.20
2023-01-23T02:14:59.808Z,16.50
2023-01-23T03:58:12.126Z,19.90
2023-01-23T04:19:21.420Z,29.30
2023-01-23T04:21:49.538Z,33.00
2023-01-23T04:24:17.255Z,37.50
2023-01-23T04:26:44.784Z,38.80
2023-01-23T04:29:12.759Z,43.50
2023-01-23T04:31:41.504Z,33.30
2023-01-23T04:34:12.745Z,39.70
2023-01-23T04:36:41.061Z,34.60
2023-01-23T04:39:08.891Z,32.50
2023-01-23T04:41:37.276Z,35.10
2023-01-23T04:44:22.556Z,32.90
2023-01-23T04:47:01.302Z,28.50
2023-01-23T04:49:30.468Z,22.70
2023-01-23T04:51:59.111Z,22.70
2023-01-23T04:54:26.596Z,21.30
2023-01-23T04:56:54.428Z,23.70
2023-01-23T04:59:22.699Z,21.20
2023-01-23T05:01:51.220Z,23.70
2023-01-23T05:04:22.527Z,21.70
2023-01-23T05:06:51.036Z,21.90
2023-01-23T05:09:18.660Z,19.70
2023-01-23T05:11:51.189Z,23.40
2023-01-23T05:14:19.207Z,23.90
2023-01-23T05:16:47.961Z,22.60
2023-01-23T05:19:15.737Z,15.40
2023-01-23T05:21:43.919Z,18.80
2023-01-23T05:24:15.431Z,19.20
2023-01-23T05:26:43.566Z,20.00
2023-01-23T05:29:11.076Z,24.00
2023-01-23T05:31:46.022Z,25.70
2023-01-23T05:34:32.400Z,18.00
2023-01-23T05:37:02.018Z,21.70
2023-01-23T05:39:32.380Z,22.30
2023-01-23T05:41:59.978Z,16.50
2023-01-23T05:44:28.246Z,23.60
2023-01-23T05:47:04.249Z,20.10
2023-01-23T05:49:32.279Z,23.50
2023-01-23T05:51:59.763Z,21.60
2023-01-23T05:54:29.645Z,17.80
2023-01-23T05:56:57.052Z,21.00
2023-01-23T05:59:44.189Z,20.60
2023-01-23T06:02:42.601Z,23.20
2023-01-23T06:05:33.052Z,22.40
2023-01-23T06:08:06.784Z,21.20
2023-01-23T06:10:38.988Z,19.80
2023-01-23T06:13:06.578Z,25.10
2023-01-23T06:15:36.505Z,16.00
2023-01-23T06:18:09.740Z,20.00
2023-01-23T06:20:37.063Z,20.30
2023-01-23T06:23:04.486Z,20.50
2023-01-23T06:25:32.193Z,16.80
2023-01-23T06:28:01.158Z,19.20
2023-01-23T06:30:30.110Z,16.00
2023-01-23T06:32:57.804Z,16.10
2023-01-23T06:35:32.094Z,14.10
2023-01-23T06:37:59.409Z,16.40
2023-01-23T06:40:26.898Z,20.30
2023-01-23T06:43:14.276Z,14.80
2023-01-23T06:45:45.540Z,19.40
2023-01-23T06:48:13.405Z,17.50
2023-01-23T06:50:42.144Z,13.30
2023-01-23T06:53:12.287Z,16.20
2023-01-23T06:58:08.946Z,14.50
2023-01-23T07:00:36.421Z,17.90
2023-01-23T07:03:05.413Z,15.30
2023-01-23T07:05:36.296Z,18.60
2023-01-23T07:08:05.146Z,17.60
2023-01-23T07:10:35.003Z,13.10
2023-01-23T07:13:02.501Z,18.60
2023-01-23T07:15:30.371Z,11.70
2023-01-23T07:17:57.692Z,14.10
2023-01-23T07:20:28.403Z,19.00
2023-01-23T07:22:57.913Z,18.50
2023-01-23T07:25:26.311Z,19.10
2023-01-23T07:27:53.961Z,16.00
2023-01-23T07:30:21.914Z,12.70
2023-01-23T07:32:49.634Z,13.40
2023-01-23T07:35:17.464Z,16.00
2023-01-23T07:37:44.976Z,15.40
2023-01-23T07:40:12.699Z,16.30
2023-01-23T07:42:41.681Z,16.30
2023-01-23T07:45:09.825Z,15.60
2023-01-23T07:47:39.516Z,13.10
2023-01-23T07:50:09.086Z,13.80
2023-01-23T07:52:37.650Z,10.20
2023-01-23T07:55:05.586Z,11.60
2023-01-23T07:57:33.776Z,18.20
2023-01-23T08:00:01.783Z,14.40
2023-01-23T08:02:40.128Z,13.30
2023-01-23T08:05:09.329Z,11.70
2023-01-23T08:07:37.973Z,14.60
2023-01-23T08:10:06.744Z,11.90
2023-01-23T08:12:34.489Z,17.50
2023-01-23T08:15:02.988Z,17.00
2023-01-23T08:17:31.498Z,14.70
2023-01-23T08:19:58.886Z,15.30
2023-01-23T08:22:26.207Z,13.80
2023-01-23T08:24:53.650Z,14.20
2023-01-23T08:27:21.029Z,13.90
2023-01-23T08:29:48.347Z,14.20
2023-01-23T08:32:16.135Z,15.80
2023-01-23T08:34:43.914Z,13.30
2023-01-23T08:37:13.396Z,12.20
2023-01-23T08:39:40.810Z,11.90
2023-01-23T08:42:08.100Z,16.20
2023-01-23T08:44:35.496Z,15.20
2023-01-23T08:47:03.306Z,20.20
2023-01-23T08:49:31.616Z,22.80
2023-01-23T08:51:59.738Z,20.40
2023-01-23T08:54:27.850Z,15.20
2023-01-23T08:56:55.404Z,23.10
2023-01-23T08:59:22.744Z,17.40
2023-01-23T09:01:50.368Z,18.90
2023-01-23T09:04:18.466Z,50.20
2023-01-23T09:06:45.943Z,21.40
2023-01-23T09:09:13.417Z,17.10
2023-01-23T09:11:41.494Z,20.80
2023-01-23T09:14:08.857Z,19.30
2023-01-23T09:16:36.655Z,23.20
2023-01-23T09:19:04.038Z,21.90
2023-01-23T09:21:31.730Z,29.40
2023-01-23T09:23:59.656Z,29.60
2023-01-23T09:26:26.963Z,22.20
2023-01-23T09:28:54.439Z,23.40
2023-01-23T09:31:24.754Z,20.70
2023-01-23T09:33:52.453Z,19.50
2023-01-23T09:36:27.472Z,20.50
2023-01-23T09:39:03.301Z,22.10
2023-01-23T14:22:58.731Z,28.10
2023-01-23T14:25:26.725Z,36.00
2023-01-23T14:28:04.537Z,17.50
2023-01-23T14:30:32.837Z,47.20
2023-01-23T14:33:00.274Z,40.50
2023-01-23T14:35:31.084Z,46.20
2023-01-23T14:38:04.917Z,47.60
2023-01-23T14:40:43.510Z,50.70
2023-01-23T14:43:20.364Z,44.80
2023-01-23T14:45:52.545Z,31.60
2023-01-23T14:48:19.959Z,41.80
2023-01-23T14:50:47.912Z,35.10
2023-01-23T14:53:16.354Z,36.90
2023-01-23T14:55:47.249Z,30.90
2023-01-23T14:58:21.860Z,35.50
2023-01-23T15:00:49.610Z,33.80
2023-01-23T15:03:40.348Z,31.50
2023-01-23T15:06:34.708Z,29.30
2023-01-23T15:09:15.774Z,29.00
2023-01-23T15:11:44.370Z,23.20
2023-01-23T15:14:27.766Z,35.40
2023-01-23T15:17:00.594Z,32.80
2023-01-23T15:19:27.998Z,28.70
2023-01-23T15:22:19.229Z,31.90
2023-01-23T15:27:34.431Z,34.90
2023-01-23T15:30:33.359Z,35.00
2023-01-23T15:33:07.100Z,31.20
2023-01-23T15:35:35.232Z,34.40
2023-01-23T15:38:04.751Z,35.60
2023-01-23T15:40:37.945Z,40.10
2023-01-23T15:43:10.976Z,43.40
2023-01-23T15:45:38.265Z,36.30
2023-01-23T15:48:06.191Z,42.70
2023-01-23T15:50:33.568Z,38.20
2023-01-23T15:53:00.857Z,36.20
2023-01-23T15:55:28.546Z,36.70
2023-01-23T15:57:56.024Z,43.30
2023-01-23T16:00:27.479Z,37.80
2023-01-23T16:02:58.211Z,36.50
2023-01-23T16:05:28.218Z,39.50
2023-01-23T16:07:56.057Z,38.10
2023-01-23T16:10:41.809Z,48.00
2023-01-23T16:13:09.913Z,37.70
2023-01-23T16:15:40.216Z,32.40
2023-01-23T16:18:08.295Z,31.10
2023-01-23T16:20:41.638Z,40.30
2023-01-23T16:23:17.246Z,34.10
2023-01-23T16:25:46.382Z,38.30
2023-01-23T16:28:15.393Z,28.60
2023-01-23T16:30:43.186Z,42.30
2023-01-23T16:33:10.684Z,38.60
2023-01-23T16:35:38.164Z,43.40
2023-01-23T16:38:05.673Z,38.20
2023-01-23T16:40:34.563Z,34.00
2023-01-23T16:43:02.688Z,31.70
2023-01-23T16:45:31.330Z,38.10
2023-01-23T16:47:58.729Z,34.30
2023-01-23T16:50:36.520Z,33.70
2023-01-23T16:53:09.332Z,36.80
2023-01-23T16:55:38.997Z,39.90
2023-01-23T16:58:07.345Z,30.60
2023-01-23T17:00:35.631Z,39.80
2023-01-23T17:03:07.016Z,35.50
2023-01-23T17:05:35.155Z,39.40
2023-01-23T17:08:23.376Z,41.00
2023-01-23T17:10:55.518Z,74.60
2023-01-23T17:13:22.994Z,36.10
2023-01-23T17:15:53.163Z,39.90
2023-01-23T17:18:23.079Z,35.20
2023-01-23T17:20:51.168Z,36.60
2023-01-23T17:23:18.572Z,39.50
2023-01-23T17:25:59.384Z,47.70
2023-01-23T17:28:28.132Z,35.60
2023-01-23T17:30:55.932Z,39.10
2023-01-23T17:33:30.078Z,37.30
2023-01-23T17:35:57.470Z,35.00
2023-01-23T17:38:26.394Z,43.20
2023-01-23T17:40:54.048Z,49.10
2023-01-23T17:43:21.604Z,55.50
2023-01-23T17:45:50.022Z,45.50
2023-01-23T17:48:23.827Z,40.30
2023-01-23T22:02:59.273Z,35.30
2023-01-23T22:10:29.895Z,39.10
2023-01-23T22:16:35.842Z,49.80
2023-01-23T22:19:18.428Z,45.50
2023-01-23T22:21:46.097Z,39.00
2023-01-23T22:24:14.454Z,46.80
2023-01-23T22:26:42.684Z,38.70
2023-01-23T22:29:12.219Z,38.80
2023-01-23T22:31:39.817Z,44.70
2023-01-23T22:34:07.433Z,35.30
2023-01-23T22:36:35.182Z,38.50
2023-01-23T22:39:03.203Z,28.00
2023-01-23T22:41:30.801Z,32.50
2023-01-23T22:44:01.186Z,29.20
2023-01-23T22:46:29.117Z,32.80
2023-01-23T22:48:56.616Z,32.30
2023-01-23T22:51:25.206Z,30.50
2023-01-23T22:53:53.355Z,26.40
2023-01-23T22:56:20.978Z,35.50
2023-01-23T22:58:49.253Z,31.30
2023-01-23T23:01:16.994Z,30.40
2023-01-23T23:03:44.802Z,30.30
2023-01-23T23:06:13.866Z,27.30
2023-01-23T23:08:41.614Z,35.70
2023-01-23T23:11:11.111Z,25.30
2023-01-23T23:13:39.359Z,32.00
2023-01-23T23:16:17.387Z,35.80
2023-01-23T23:18:45.711Z,32.80
2023-01-23T23:21:14.902Z,29.30
2023-01-23T23:23:42.509Z,31.70
2023-01-23T23:26:10.794Z,27.40
2023-01-23T23:28:38.663Z,31.10
2023-01-23T23:31:06.969Z,32.50
2023-01-23T23:33:34.765Z,32.20
2023-01-23T23:36:02.121Z,43.40
2023-01-23T23:38:29.727Z,52.20
2023-01-23T23:41:04.914Z,60.40
2023-01-23T23:43:32.550Z,65.80
2023-01-23T23:46:02.413Z,57.70
2023-01-23T23:48:30.279Z,46.70
